sensor_id;sensor_type;location;lat;lon;timestamp;P1;durP1;ratioP1;P2;durP2;ratioP2
80421;SDS011;69763;50.182;9.144;2023-05-07T00:01:30;3.72;;;2.30;;
80421;SDS011;69763;50.182;9.144;2023-05-07T00:03:56;5.28;;;2.00;;
80421;SDS011;69763;50.182;9.144;2023-05-07T00:06:21;4.47;;;2.00;;
80421;SDS011;69763;50.182;9.144;2023-05-07T00:08:46;5.97;;;2.20;;
80421;SDS011;69763;50.182;9.144;2023-05-07T00:11:12;4.30;;;1.98;;
80421;SDS011;69763;50.182;9.144;2023-05-07T00:13:37;2.65;;;2.03;;
80421;SDS011;69763;50.182;9.144;2023-05-07T00:16:03;3.97;;;2.30;;
80421;SDS011;69763;50.182;9.144;2023-05-07T00:18:30;3.60;;;2.35;;
80421;SDS011;69763;50.182;9.144;2023-05-07T00:20:55;3.85;;;2.00;;
80421;SDS011;69763;50.182;9.144;2023-05-07T00:23:21;3.65;;;2.20;;
80421;SDS011;69763;50.182;9.144;2023-05-07T00:25:46;3.03;;;2.20;;
80421;SDS011;69763;50.182;9.144;2023-05-07T00:28:11;5.20;;;2.28;;
80421;SDS011;69763;50.182;9.144;2023-05-07T00:30:37;3.00;;;1.80;;
80421;SDS011;69763;50.182;9.144;2023-05-07T00:33:02;3.35;;;2.10;;
80421;SDS011;69763;50.182;9.144;2023-05-07T00:35:29;4.20;;;2.13;;
80421;SDS011;69763;50.182;9.144;2023-05-07T00:37:54;4.15;;;2.42;;
80421;SDS011;69763;50.182;9.144;2023-05-07T00:40:20;3.25;;;2.15;;
80421;SDS011;69763;50.182;9.144;2023-05-07T00:42:45;3.22;;;2.00;;
80421;SDS011;69763;50.182;9.144;2023-05-07T00:45:11;4.28;;;2.30;;
80421;SDS011;69763;50.182;9.144;2023-05-07T00:47:36;3.97;;;2.13;;
80421;SDS011;69763;50.182;9.144;2023-05-07T00:50:01;3.63;;;2.05;;
80421;SDS011;69763;50.182;9.144;2023-05-07T00:52:29;2.97;;;1.98;;
80421;SDS011;69763;50.182;9.144;2023-05-07T00:54:54;4.88;;;2.00;;
80421;SDS011;69763;50.182;9.144;2023-05-07T00:57:20;3.03;;;2.17;;
80421;SDS011;69763;50.182;9.144;2023-05-07T00:59:46;4.50;;;2.22;;
80421;SDS011;69763;50.182;9.144;2023-05-07T01:02:12;5.30;;;2.25;;
80421;SDS011;69763;50.182;9.144;2023-05-07T01:04:37;2.97;;;2.05;;
80421;SDS011;69763;50.182;9.144;2023-05-07T01:07:02;3.13;;;2.30;;
80421;SDS011;69763;50.182;9.144;2023-05-07T01:09:30;3.47;;;2.22;;
80421;SDS011;69763;50.182;9.144;2023-05-07T01:11:56;4.35;;;2.05;;
80421;SDS011;69763;50.182;9.144;2023-05-07T01:14:22;6.35;;;2.40;;
80421;SDS011;69763;50.182;9.144;2023-05-07T01:16:48;3.42;;;2.03;;
80421;SDS011;69763;50.182;9.144;2023-05-07T01:19:13;3.38;;;2.50;;
80421;SDS011;69763;50.182;9.144;2023-05-07T01:21:43;4.38;;;2.40;;
80421;SDS011;69763;50.182;9.144;2023-05-07T01:24:12;4.68;;;2.42;;
80421;SDS011;69763;50.182;9.144;2023-05-07T01:26:39;3.35;;;2.17;;
80421;SDS011;69763;50.182;9.144;2023-05-07T01:31:30;5.87;;;2.03;;
80421;SDS011;69763;50.182;9.144;2023-05-07T01:33:58;4.10;;;2.33;;
80421;SDS011;69763;50.182;9.144;2023-05-07T01:36:25;4.15;;;2.10;;
80421;SDS011;69763;50.182;9.144;2023-05-07T01:38:51;3.58;;;2.10;;
80421;SDS011;69763;50.182;9.144;2023-05-07T01:41:18;3.40;;;2.22;;
80421;SDS011;69763;50.182;9.144;2023-05-07T01:43:44;2.92;;;2.13;;
80421;SDS011;69763;50.182;9.144;2023-05-07T01:46:10;3.22;;;2.17;;
80421;SDS011;69763;50.182;9.144;2023-05-07T01:48:36;2.85;;;2.13;;
80421;SDS011;69763;50.182;9.144;2023-05-07T01:51:02;4.05;;;2.25;;
80421;SDS011;69763;50.182;9.144;2023-05-07T01:53:28;3.35;;;1.85;;
80421;SDS011;69763;50.182;9.144;2023-05-07T01:56:00;5.35;;;2.10;;
80421;SDS011;69763;50.182;9.144;2023-05-07T01:58:27;4.47;;;2.30;;
80421;SDS011;69763;50.182;9.144;2023-05-07T02:00:52;7.43;;;2.25;;
80421;SDS011;69763;50.182;9.144;2023-05-07T02:03:18;3.83;;;2.20;;
80421;SDS011;69763;50.182;9.144;2023-05-07T02:05:43;3.08;;;2.10;;
80421;SDS011;69763;50.182;9.144;2023-05-07T02:08:08;3.70;;;1.85;;
80421;SDS011;69763;50.182;9.144;2023-05-07T02:10:34;3.20;;;2.15;;
80421;SDS011;69763;50.182;9.144;2023-05-07T02:12:59;4.28;;;2.20;;
80421;SDS011;69763;50.182;9.144;2023-05-07T02:15:26;6.47;;;2.15;;
80421;SDS011;69763;50.182;9.144;2023-05-07T02:18:00;3.78;;;2.53;;
80421;SDS011;69763;50.182;9.144;2023-05-07T02:20:28;3.38;;;2.25;;
80421;SDS011;69763;50.182;9.144;2023-05-07T02:22:53;3.65;;;2.50;;
80421;SDS011;69763;50.182;9.144;2023-05-07T02:25:19;3.58;;;2.20;;
80421;SDS011;69763;50.182;9.144;2023-05-07T02:27:44;3.78;;;2.33;;
80421;SDS011;69763;50.182;9.144;2023-05-07T02:30:10;4.03;;;2.30;;
80421;SDS011;69763;50.182;9.144;2023-05-07T02:32:37;3.80;;;2.53;;
80421;SDS011;69763;50.182;9.144;2023-05-07T02:35:02;4.18;;;2.60;;
80421;SDS011;69763;50.182;9.144;2023-05-07T02:37:28;3.83;;;2.40;;
80421;SDS011;69763;50.182;9.144;2023-05-07T02:39:53;5.80;;;2.28;;
80421;SDS011;69763;50.182;9.144;2023-05-07T02:42:19;4.25;;;2.88;;
80421;SDS011;69763;50.182;9.144;2023-05-07T02:44:44;3.67;;;2.33;;
80421;SDS011;69763;50.182;9.144;2023-05-07T02:47:09;3.78;;;2.33;;
80421;SDS011;69763;50.182;9.144;2023-05-07T02:49:36;4.15;;;2.42;;
80421;SDS011;69763;50.182;9.144;2023-05-07T02:52:01;3.45;;;2.50;;
80421;SDS011;69763;50.182;9.144;2023-05-07T02:54:27;3.00;;;2.42;;
80421;SDS011;69763;50.182;9.144;2023-05-07T02:56:52;3.20;;;2.53;;
80421;SDS011;69763;50.182;9.144;2023-05-07T02:59:18;4.90;;;2.28;;
80421;SDS011;69763;50.182;9.144;2023-05-07T03:01:43;4.03;;;2.83;;
80421;SDS011;69763;50.182;9.144;2023-05-07T03:04:08;4.47;;;2.80;;
80421;SDS011;69763;50.182;9.144;2023-05-07T03:06:35;3.33;;;2.60;;
80421;SDS011;69763;50.182;9.144;2023-05-07T03:09:00;3.05;;;2.40;;
80421;SDS011;69763;50.182;9.144;2023-05-07T03:11:26;3.40;;;2.60;;
80421;SDS011;69763;50.182;9.144;2023-05-07T03:13:51;4.93;;;2.55;;
80421;SDS011;69763;50.182;9.144;2023-05-07T03:16:16;5.32;;;2.92;;
80421;SDS011;69763;50.182;9.144;2023-05-07T03:18:42;4.05;;;2.40;;
80421;SDS011;69763;50.182;9.144;2023-05-07T03:21:07;5.23;;;2.63;;
80421;SDS011;69763;50.182;9.144;2023-05-07T03:23:34;4.03;;;2.50;;
80421;SDS011;69763;50.182;9.144;2023-05-07T03:25:59;4.43;;;3.17;;
80421;SDS011;69763;50.182;9.144;2023-05-07T03:28:24;5.05;;;2.80;;
80421;SDS011;69763;50.182;9.144;2023-05-07T03:30:50;4.13;;;2.90;;
80421;SDS011;69763;50.182;9.144;2023-05-07T03:33:15;4.38;;;2.78;;
80421;SDS011;69763;50.182;9.144;2023-05-07T03:35:40;6.28;;;2.80;;
80421;SDS011;69763;50.182;9.144;2023-05-07T03:38:06;3.85;;;2.50;;
80421;SDS011;69763;50.182;9.144;2023-05-07T03:40:33;6.82;;;2.65;;
80421;SDS011;69763;50.182;9.144;2023-05-07T03:42:59;5.53;;;3.25;;
80421;SDS011;69763;50.182;9.144;2023-05-07T03:45:25;4.43;;;2.63;;
80421;SDS011;69763;50.182;9.144;2023-05-07T03:47:50;4.03;;;2.63;;
80421;SDS011;69763;50.182;9.144;2023-05-07T03:50:15;7.13;;;2.70;;
80421;SDS011;69763;50.182;9.144;2023-05-07T03:52:41;4.78;;;3.22;;
80421;SDS011;69763;50.182;9.144;2023-05-07T03:55:06;4.75;;;2.83;;
80421;SDS011;69763;50.182;9.144;2023-05-07T03:57:34;3.80;;;2.67;;
80421;SDS011;69763;50.182;9.144;2023-05-07T03:59:59;4.13;;;2.70;;
80421;SDS011;69763;50.182;9.144;2023-05-07T04:02:24;6.15;;;3.03;;
80421;SDS011;69763;50.182;9.144;2023-05-07T04:04:50;4.75;;;2.88;;
80421;SDS011;69763;50.182;9.144;2023-05-07T04:07:15;5.45;;;3.08;;
80421;SDS011;69763;50.182;9.144;2023-05-07T04:09:40;6.10;;;3.10;;
80421;SDS011;69763;50.182;9.144;2023-05-07T04:12:06;5.68;;;3.40;;
80421;SDS011;69763;50.182;9.144;2023-05-07T04:14:32;4.22;;;3.20;;
80421;SDS011;69763;50.182;9.144;2023-05-07T04:16:58;5.97;;;3.53;;
80421;SDS011;69763;50.182;9.144;2023-05-07T04:19:23;4.00;;;2.67;;
80421;SDS011;69763;50.182;9.144;2023-05-07T04:21:48;4.90;;;3.20;;
80421;SDS011;69763;50.182;9.144;2023-05-07T04:24:14;3.83;;;2.90;;
80421;SDS011;69763;50.182;9.144;2023-05-07T04:26:39;4.23;;;3.00;;
80421;SDS011;69763;50.182;9.144;2023-05-07T04:29:04;5.60;;;3.17;;
80421;SDS011;69763;50.182;9.144;2023-05-07T04:31:31;4.53;;;3.50;;
80421;SDS011;69763;50.182;9.144;2023-05-07T04:33:56;4.63;;;3.67;;
80421;SDS011;69763;50.182;9.144;2023-05-07T04:36:22;4.63;;;3.58;;
80421;SDS011;69763;50.182;9.144;2023-05-07T04:38:47;5.25;;;2.92;;
80421;SDS011;69763;50.182;9.144;2023-05-07T04:41:13;4.50;;;3.30;;
80421;SDS011;69763;50.182;9.144;2023-05-07T04:43:38;5.03;;;3.72;;
80421;SDS011;69763;50.182;9.144;2023-05-07T04:46:03;4.75;;;3.58;;
80421;SDS011;69763;50.182;9.144;2023-05-07T04:48:30;5.90;;;3.58;;
80421;SDS011;69763;50.182;9.144;2023-05-07T04:50:55;4.90;;;3.55;;
80421;SDS011;69763;50.182;9.144;2023-05-07T04:53:21;4.30;;;3.08;;
80421;SDS011;69763;50.182;9.144;2023-05-07T04:55:46;5.85;;;3.60;;
80421;SDS011;69763;50.182;9.144;2023-05-07T04:58:12;5.45;;;3.45;;
80421;SDS011;69763;50.182;9.144;2023-05-07T05:00:37;5.00;;;3.65;;
80421;SDS011;69763;50.182;9.144;2023-05-07T05:03:03;6.32;;;3.53;;
80421;SDS011;69763;50.182;9.144;2023-05-07T05:05:29;5.13;;;3.45;;
80421;SDS011;69763;50.182;9.144;2023-05-07T05:07:55;5.78;;;3.40;;
80421;SDS011;69763;50.182;9.144;2023-05-07T05:10:20;7.65;;;3.50;;
80421;SDS011;69763;50.182;9.144;2023-05-07T05:15:12;6.30;;;3.60;;
80421;SDS011;69763;50.182;9.144;2023-05-07T05:17:37;5.93;;;3.28;;
80421;SDS011;69763;50.182;9.144;2023-05-07T05:20:03;4.82;;;3.75;;
80421;SDS011;69763;50.182;9.144;2023-05-07T05:22:30;5.03;;;3.95;;
80421;SDS011;69763;50.182;9.144;2023-05-07T05:24:56;5.03;;;3.50;;
80421;SDS011;69763;50.182;9.144;2023-05-07T05:27:21;6.63;;;3.65;;
80421;SDS011;69763;50.182;9.144;2023-05-07T05:29:47;4.75;;;3.50;;
80421;SDS011;69763;50.182;9.144;2023-05-07T05:32:12;6.72;;;3.78;;
80421;SDS011;69763;50.182;9.144;2023-05-07T05:34:37;4.93;;;3.78;;
80421;SDS011;69763;50.182;9.144;2023-05-07T05:37:03;6.47;;;3.87;;
80421;SDS011;69763;50.182;9.144;2023-05-07T05:39:29;5.90;;;4.07;;
80421;SDS011;69763;50.182;9.144;2023-05-07T05:41:55;5.30;;;3.85;;
80421;SDS011;69763;50.182;9.144;2023-05-07T05:44:20;5.05;;;3.88;;
80421;SDS011;69763;50.182;9.144;2023-05-07T05:46:45;5.40;;;3.55;;
80421;SDS011;69763;50.182;9.144;2023-05-07T05:49:11;5.15;;;3.55;;
80421;SDS011;69763;50.182;9.144;2023-05-07T05:51:36;6.07;;;3.70;;
80421;SDS011;69763;50.182;9.144;2023-05-07T05:54:01;5.78;;;3.75;;
80421;SDS011;69763;50.182;9.144;2023-05-07T05:56:28;7.15;;;3.92;;
80421;SDS011;69763;50.182;9.144;2023-05-07T05:58:54;5.95;;;3.80;;
80421;SDS011;69763;50.182;9.144;2023-05-07T06:01:19;5.45;;;3.60;;
80421;SDS011;69763;50.182;9.144;2023-05-07T06:03:44;6.32;;;4.20;;
80421;SDS011;69763;50.182;9.144;2023-05-07T06:06:10;5.53;;;3.63;;
80421;SDS011;69763;50.182;9.144;2023-05-07T06:08:35;5.23;;;3.83;;
80421;SDS011;69763;50.182;9.144;2023-05-07T06:11:01;5.85;;;4.32;;
80421;SDS011;69763;50.182;9.144;2023-05-07T06:13:28;5.35;;;3.90;;
80421;SDS011;69763;50.182;9.144;2023-05-07T06:15:53;7.65;;;4.05;;
80421;SDS011;69763;50.182;9.144;2023-05-07T06:18:19;4.47;;;3.80;;
80421;SDS011;69763;50.182;9.144;2023-05-07T06:20:44;6.03;;;4.30;;
80421;SDS011;69763;50.182;9.144;2023-05-07T06:23:09;5.18;;;3.60;;
80421;SDS011;69763;50.182;9.144;2023-05-07T06:25:35;5.45;;;3.95;;
80421;SDS011;69763;50.182;9.144;2023-05-07T06:28:00;7.07;;;3.88;;
80421;SDS011;69763;50.182;9.144;2023-05-07T06:30:27;7.63;;;4.38;;
80421;SDS011;69763;50.182;9.144;2023-05-07T06:32:52;6.40;;;4.47;;
80421;SDS011;69763;50.182;9.144;2023-05-07T06:35:18;5.63;;;3.83;;
80421;SDS011;69763;50.182;9.144;2023-05-07T06:37:44;7.15;;;4.53;;
80421;SDS011;69763;50.182;9.144;2023-05-07T06:40:10;5.30;;;4.20;;
80421;SDS011;69763;50.182;9.144;2023-05-07T06:42:35;6.60;;;4.43;;
80421;SDS011;69763;50.182;9.144;2023-05-07T06:45:01;5.43;;;4.22;;
80421;SDS011;69763;50.182;9.144;2023-05-07T06:47:28;5.97;;;4.20;;
80421;SDS011;69763;50.182;9.144;2023-05-07T06:49:53;6.47;;;4.32;;
80421;SDS011;69763;50.182;9.144;2023-05-07T06:52:18;6.38;;;3.88;;
80421;SDS011;69763;50.182;9.144;2023-05-07T06:54:44;6.43;;;4.45;;
80421;SDS011;69763;50.182;9.144;2023-05-07T06:57:09;5.80;;;4.43;;
80421;SDS011;69763;50.182;9.144;2023-05-07T06:59:34;5.72;;;4.03;;
80421;SDS011;69763;50.182;9.144;2023-05-07T07:02:00;7.20;;;4.45;;
80421;SDS011;69763;50.182;9.144;2023-05-07T07:04:26;4.90;;;3.60;;
80421;SDS011;69763;50.182;9.144;2023-05-07T07:06:52;8.13;;;4.70;;
80421;SDS011;69763;50.182;9.144;2023-05-07T07:09:18;7.25;;;4.38;;
80421;SDS011;69763;50.182;9.144;2023-05-07T07:11:44;5.10;;;4.55;;
80421;SDS011;69763;50.182;9.144;2023-05-07T07:14:09;6.00;;;4.20;;
80421;SDS011;69763;50.182;9.144;2023-05-07T07:16:34;7.55;;;4.47;;
80421;SDS011;69763;50.182;9.144;2023-05-07T07:18:59;5.37;;;4.00;;
80421;SDS011;69763;50.182;9.144;2023-05-07T07:21:26;5.03;;;3.95;;
80421;SDS011;69763;50.182;9.144;2023-05-07T07:23:52;7.75;;;4.20;;
80421;SDS011;69763;50.182;9.144;2023-05-07T07:26:17;6.38;;;4.75;;
80421;SDS011;69763;50.182;9.144;2023-05-07T07:28:43;6.22;;;3.97;;
80421;SDS011;69763;50.182;9.144;2023-05-07T07:31:08;5.57;;;4.53;;
80421;SDS011;69763;50.182;9.144;2023-05-07T07:33:33;6.15;;;4.38;;
80421;SDS011;69763;50.182;9.144;2023-05-07T07:35:59;5.65;;;4.28;;
80421;SDS011;69763;50.182;9.144;2023-05-07T07:38:25;5.03;;;4.07;;
80421;SDS011;69763;50.182;9.144;2023-05-07T07:40:51;6.07;;;4.40;;
80421;SDS011;69763;50.182;9.144;2023-05-07T07:43:16;6.72;;;4.63;;
80421;SDS011;69763;50.182;9.144;2023-05-07T07:45:42;6.63;;;4.78;;
80421;SDS011;69763;50.182;9.144;2023-05-07T07:48:07;6.38;;;4.70;;
80421;SDS011;69763;50.182;9.144;2023-05-07T07:50:32;5.38;;;4.43;;
80421;SDS011;69763;50.182;9.144;2023-05-07T07:52:58;6.55;;;3.97;;
80421;SDS011;69763;50.182;9.144;2023-05-07T07:55:24;5.63;;;4.10;;
80421;SDS011;69763;50.182;9.144;2023-05-07T07:57:50;4.80;;;3.97;;
80421;SDS011;69763;50.182;9.144;2023-05-07T08:00:15;7.25;;;4.68;;
80421;SDS011;69763;50.182;9.144;2023-05-07T08:02:41;6.82;;;4.35;;
80421;SDS011;69763;50.182;9.144;2023-05-07T08:05:07;5.47;;;3.80;;
80421;SDS011;69763;50.182;9.144;2023-05-07T08:07:32;5.43;;;4.30;;
80421;SDS011;69763;50.182;9.144;2023-05-07T08:09:58;7.78;;;4.40;;
80421;SDS011;69763;50.182;9.144;2023-05-07T08:12:24;5.15;;;4.07;;
80421;SDS011;69763;50.182;9.144;2023-05-07T08:14:50;5.18;;;3.90;;
80421;SDS011;69763;50.182;9.144;2023-05-07T08:17:15;4.60;;;3.67;;
80421;SDS011;69763;50.182;9.144;2023-05-07T08:19:41;6.28;;;4.20;;
80421;SDS011;69763;50.182;9.144;2023-05-07T08:22:06;7.18;;;4.32;;
80421;SDS011;69763;50.182;9.144;2023-05-07T08:24:31;6.45;;;4.40;;
80421;SDS011;69763;50.182;9.144;2023-05-07T08:26:57;5.38;;;3.90;;
80421;SDS011;69763;50.182;9.144;2023-05-07T08:29:23;4.70;;;3.92;;
80421;SDS011;69763;50.182;9.144;2023-05-07T08:31:49;5.93;;;4.05;;
80421;SDS011;69763;50.182;9.144;2023-05-07T08:34:14;6.15;;;3.72;;
80421;SDS011;69763;50.182;9.144;2023-05-07T08:36:40;4.38;;;3.72;;
80421;SDS011;69763;50.182;9.144;2023-05-07T08:39:05;5.20;;;4.13;;
80421;SDS011;69763;50.182;9.144;2023-05-07T08:41:30;4.40;;;3.65;;
80421;SDS011;69763;50.182;9.144;2023-05-07T08:43:57;5.25;;;3.80;;
80421;SDS011;69763;50.182;9.144;2023-05-07T08:46:24;4.50;;;3.72;;
80421;SDS011;69763;50.182;9.144;2023-05-07T08:48:51;4.65;;;3.75;;
80421;SDS011;69763;50.182;9.144;2023-05-07T08:51:17;5.45;;;4.00;;
80421;SDS011;69763;50.182;9.144;2023-05-07T08:53:44;6.40;;;4.00;;
80421;SDS011;69763;50.182;9.144;2023-05-07T08:56:09;5.22;;;3.75;;
80421;SDS011;69763;50.182;9.144;2023-05-07T09:01:00;5.07;;;3.90;;
80421;SDS011;69763;50.182;9.144;2023-05-07T09:03:31;6.45;;;3.88;;
80421;SDS011;69763;50.182;9.144;2023-05-07T09:05:57;6.03;;;4.00;;
80421;SDS011;69763;50.182;9.144;2023-05-07T09:08:24;4.28;;;3.65;;
80421;SDS011;69763;50.182;9.144;2023-05-07T09:10:51;6.38;;;4.32;;
80421;SDS011;69763;50.182;9.144;2023-05-07T09:13:17;8.02;;;3.83;;
80421;SDS011;69763;50.182;9.144;2023-05-07T09:15:42;6.63;;;4.78;;
80421;SDS011;69763;50.182;9.144;2023-05-07T09:20:34;5.60;;;4.23;;
80421;SDS011;69763;50.182;9.144;2023-05-07T09:23:01;4.63;;;3.92;;
80421;SDS011;69763;50.182;9.144;2023-05-07T09:25:30;6.05;;;4.72;;
80421;SDS011;69763;50.182;9.144;2023-05-07T09:27:56;7.32;;;4.60;;
80421;SDS011;69763;50.182;9.144;2023-05-07T09:30:22;5.32;;;4.18;;
80421;SDS011;69763;50.182;9.144;2023-05-07T09:35:14;6.00;;;4.00;;
80421;SDS011;69763;50.182;9.144;2023-05-07T09:37:41;5.93;;;3.78;;
80421;SDS011;69763;50.182;9.144;2023-05-07T09:40:07;6.50;;;4.20;;
80421;SDS011;69763;50.182;9.144;2023-05-07T09:42:44;5.13;;;4.00;;
80421;SDS011;69763;50.182;9.144;2023-05-07T09:45:10;7.32;;;4.43;;
80421;SDS011;69763;50.182;9.144;2023-05-07T09:50:02;7.65;;;4.13;;
80421;SDS011;69763;50.182;9.144;2023-05-07T09:52:30;5.47;;;3.78;;
80421;SDS011;69763;50.182;9.144;2023-05-07T09:54:57;5.22;;;3.97;;
80421;SDS011;69763;50.182;9.144;2023-05-07T09:57:24;5.95;;;4.38;;
80421;SDS011;69763;50.182;9.144;2023-05-07T09:59:50;5.95;;;3.88;;
80421;SDS011;69763;50.182;9.144;2023-05-07T10:02:18;4.13;;;3.70;;
80421;SDS011;69763;50.182;9.144;2023-05-07T10:07:10;5.32;;;3.72;;
80421;SDS011;69763;50.182;9.144;2023-05-07T10:12:02;4.93;;;4.00;;
80421;SDS011;69763;50.182;9.144;2023-05-07T10:14:28;5.43;;;3.85;;
80421;SDS011;69763;50.182;9.144;2023-05-07T10:16:53;4.55;;;3.75;;
80421;SDS011;69763;50.182;9.144;2023-05-07T10:19:19;5.60;;;4.07;;
80421;SDS011;69763;50.182;9.144;2023-05-07T10:21:48;5.20;;;3.75;;
80421;SDS011;69763;50.182;9.144;2023-05-07T10:24:16;6.00;;;3.85;;
80421;SDS011;69763;50.182;9.144;2023-05-07T10:26:45;5.25;;;4.03;;
80421;SDS011;69763;50.182;9.144;2023-05-07T10:29:15;5.70;;;4.20;;
80421;SDS011;69763;50.182;9.144;2023-05-07T10:31:54;5.93;;;4.25;;
80421;SDS011;69763;50.182;9.144;2023-05-07T10:34:24;7.15;;;4.03;;
80421;SDS011;69763;50.182;9.144;2023-05-07T10:36:53;5.43;;;3.92;;
80421;SDS011;69763;50.182;9.144;2023-05-07T10:39:20;6.68;;;3.83;;
80421;SDS011;69763;50.182;9.144;2023-05-07T10:41:46;5.05;;;3.63;;
80421;SDS011;69763;50.182;9.144;2023-05-07T10:44:11;5.10;;;3.83;;
80421;SDS011;69763;50.182;9.144;2023-05-07T10:46:38;5.60;;;3.35;;
80421;SDS011;69763;50.182;9.144;2023-05-07T10:49:07;5.10;;;3.70;;
80421;SDS011;69763;50.182;9.144;2023-05-07T10:51:33;5.00;;;3.65;;
80421;SDS011;69763;50.182;9.144;2023-05-07T10:54:21;4.63;;;3.72;;
80421;SDS011;69763;50.182;9.144;2023-05-07T10:56:46;5.63;;;3.45;;
80421;SDS011;69763;50.182;9.144;2023-05-07T10:59:31;4.35;;;3.45;;
80421;SDS011;69763;50.182;9.144;2023-05-07T11:01:59;4.22;;;3.17;;
80421;SDS011;69763;50.182;9.144;2023-05-07T11:04:25;4.68;;;3.72;;
80421;SDS011;69763;50.182;9.144;2023-05-07T11:07:21;3.97;;;3.30;;
80421;SDS011;69763;50.182;9.144;2023-05-07T11:09:56;5.03;;;3.25;;
80421;SDS011;69763;50.182;9.144;2023-05-07T11:15:12;7.97;;;3.70;;
80421;SDS011;69763;50.182;9.144;2023-05-07T11:17:53;4.63;;;3.20;;
80421;SDS011;69763;50.182;9.144;2023-05-07T11:20:19;4.68;;;3.55;;
80421;SDS011;69763;50.182;9.144;2023-05-07T11:22:45;4.00;;;3.22;;
80421;SDS011;69763;50.182;9.144;2023-05-07T11:25:10;5.45;;;3.40;;
80421;SDS011;69763;50.182;9.144;2023-05-07T11:27:42;4.97;;;3.33;;
80421;SDS011;69763;50.182;9.144;2023-05-07T11:30:08;3.95;;;2.90;;
80421;SDS011;69763;50.182;9.144;2023-05-07T11:32:34;5.28;;;3.20;;
80421;SDS011;69763;50.182;9.144;2023-05-07T11:35:01;6.30;;;3.65;;
80421;SDS011;69763;50.182;9.144;2023-05-07T11:37:27;4.95;;;3.20;;
80421;SDS011;69763;50.182;9.144;2023-05-07T11:42:27;4.72;;;3.20;;
80421;SDS011;69763;50.182;9.144;2023-05-07T11:44:53;5.97;;;3.17;;
80421;SDS011;69763;50.182;9.144;2023-05-07T11:47:19;4.53;;;3.22;;
80421;SDS011;69763;50.182;9.144;2023-05-07T11:49:45;3.97;;;3.10;;
80421;SDS011;69763;50.182;9.144;2023-05-07T11:52:13;3.83;;;2.90;;
80421;SDS011;69763;50.182;9.144;2023-05-07T11:54:39;6.63;;;4.00;;
80421;SDS011;69763;50.182;9.144;2023-05-07T11:57:04;5.45;;;3.33;;
80421;SDS011;69763;50.182;9.144;2023-05-07T11:59:29;5.03;;;3.30;;
80421;SDS011;69763;50.182;9.144;2023-05-07T12:01:56;5.10;;;3.13;;
80421;SDS011;69763;50.182;9.144;2023-05-07T12:04:22;4.68;;;3.30;;
80421;SDS011;69763;50.182;9.144;2023-05-07T12:06:47;5.80;;;3.08;;
80421;SDS011;69763;50.182;9.144;2023-05-07T12:09:14;5.72;;;3.20;;
80421;SDS011;69763;50.182;9.144;2023-05-07T12:11:39;5.75;;;2.97;;
80421;SDS011;69763;50.182;9.144;2023-05-07T12:14:04;3.95;;;2.88;;
80421;SDS011;69763;50.182;9.144;2023-05-07T12:16:30;3.20;;;2.58;;
80421;SDS011;69763;50.182;9.144;2023-05-07T12:18:55;3.90;;;2.90;;
80421;SDS011;69763;50.182;9.144;2023-05-07T12:21:21;3.10;;;2.50;;
80421;SDS011;69763;50.182;9.144;2023-05-07T12:23:47;3.67;;;2.50;;
80421;SDS011;69763;50.182;9.144;2023-05-07T12:26:14;3.55;;;2.33;;
80421;SDS011;69763;50.182;9.144;2023-05-07T12:28:39;4.10;;;2.50;;
80421;SDS011;69763;50.182;9.144;2023-05-07T12:31:05;3.33;;;2.60;;
80421;SDS011;69763;50.182;9.144;2023-05-07T12:35:56;3.50;;;2.73;;
80421;SDS011;69763;50.182;9.144;2023-05-07T12:38:22;3.70;;;2.40;;
80421;SDS011;69763;50.182;9.144;2023-05-07T12:40:47;3.53;;;2.70;;
80421;SDS011;69763;50.182;9.144;2023-05-07T12:43:19;3.40;;;2.40;;
80421;SDS011;69763;50.182;9.144;2023-05-07T12:45:46;4.75;;;2.65;;
80421;SDS011;69763;50.182;9.144;2023-05-07T12:48:13;3.72;;;2.35;;
80421;SDS011;69763;50.182;9.144;2023-05-07T12:50:39;2.75;;;2.22;;
80421;SDS011;69763;50.182;9.144;2023-05-07T12:53:05;3.55;;;2.65;;
80421;SDS011;69763;50.182;9.144;2023-05-07T12:57:56;3.73;;;2.50;;
80421;SDS011;69763;50.182;9.144;2023-05-07T13:03:03;3.25;;;2.40;;
80421;SDS011;69763;50.182;9.144;2023-05-07T13:05:29;4.43;;;2.75;;
80421;SDS011;69763;50.182;9.144;2023-05-07T13:07:54;7.68;;;2.50;;
80421;SDS011;69763;50.182;9.144;2023-05-07T13:10:21;3.63;;;2.20;;
80421;SDS011;69763;50.182;9.144;2023-05-07T13:12:46;3.22;;;2.42;;
80421;SDS011;69763;50.182;9.144;2023-05-07T13:15:12;3.95;;;2.55;;
80421;SDS011;69763;50.182;9.144;2023-05-07T13:17:38;5.63;;;2.70;;
80421;SDS011;69763;50.182;9.144;2023-05-07T13:20:04;3.67;;;2.50;;
80421;SDS011;69763;50.182;9.144;2023-05-07T13:22:30;3.50;;;2.72;;
80421;SDS011;69763;50.182;9.144;2023-05-07T13:24:56;4.15;;;2.95;;
80421;SDS011;69763;50.182;9.144;2023-05-07T13:27:22;4.45;;;2.60;;
80421;SDS011;69763;50.182;9.144;2023-05-07T13:29:47;3.22;;;2.65;;
80421;SDS011;69763;50.182;9.144;2023-05-07T13:32:12;3.60;;;2.90;;
80421;SDS011;69763;50.182;9.144;2023-05-07T13:34:39;3.88;;;2.63;;
80421;SDS011;69763;50.182;9.144;2023-05-07T13:37:04;3.45;;;2.40;;
80421;SDS011;69763;50.182;9.144;2023-05-07T13:39:30;4.15;;;2.70;;
80421;SDS011;69763;50.182;9.144;2023-05-07T13:41:55;3.45;;;2.33;;
80421;SDS011;69763;50.182;9.144;2023-05-07T13:44:20;5.03;;;2.97;;
80421;SDS011;69763;50.182;9.144;2023-05-07T13:46:46;4.38;;;2.80;;
80421;SDS011;69763;50.182;9.144;2023-05-07T13:49:11;3.38;;;2.35;;
80421;SDS011;69763;50.182;9.144;2023-05-07T13:51:38;3.75;;;2.50;;
80421;SDS011;69763;50.182;9.144;2023-05-07T13:54:03;5.60;;;2.88;;
80421;SDS011;69763;50.182;9.144;2023-05-07T13:56:29;3.05;;;2.30;;
80421;SDS011;69763;50.182;9.144;2023-05-07T13:58:54;4.03;;;2.47;;
80421;SDS011;69763;50.182;9.144;2023-05-07T14:01:19;2.85;;;2.20;;
80421;SDS011;69763;50.182;9.144;2023-05-07T14:03:45;4.10;;;2.75;;
80421;SDS011;69763;50.182;9.144;2023-05-07T14:06:10;5.05;;;3.03;;
80421;SDS011;69763;50.182;9.144;2023-05-07T14:08:37;3.42;;;2.40;;
80421;SDS011;69763;50.182;9.144;2023-05-07T14:11:02;3.30;;;2.55;;
80421;SDS011;69763;50.182;9.144;2023-05-07T14:13:27;4.07;;;2.95;;
80421;SDS011;69763;50.182;9.144;2023-05-07T14:15:53;3.72;;;2.72;;
80421;SDS011;69763;50.182;9.144;2023-05-07T14:18:18;3.47;;;2.70;;
80421;SDS011;69763;50.182;9.144;2023-05-07T14:20:43;6.68;;;3.00;;
80421;SDS011;69763;50.182;9.144;2023-05-07T14:23:09;3.53;;;2.70;;
80421;SDS011;69763;50.182;9.144;2023-05-07T14:25:35;4.47;;;2.97;;
80421;SDS011;69763;50.182;9.144;2023-05-07T14:28:01;4.32;;;3.00;;
80421;SDS011;69763;50.182;9.144;2023-05-07T14:30:26;4.38;;;3.13;;
80421;SDS011;69763;50.182;9.144;2023-05-07T14:32:51;5.63;;;4.03;;
80421;SDS011;69763;50.182;9.144;2023-05-07T14:35:17;7.57;;;3.50;;
80421;SDS011;69763;50.182;9.144;2023-05-07T14:37:42;4.90;;;3.53;;
80421;SDS011;69763;50.182;9.144;2023-05-07T14:40:08;4.82;;;3.10;;
80421;SDS011;69763;50.182;9.144;2023-05-07T14:45:01;5.65;;;3.10;;
80421;SDS011;69763;50.182;9.144;2023-05-07T14:47:26;3.75;;;2.75;;
80421;SDS011;69763;50.182;9.144;2023-05-07T14:49:51;3.92;;;2.85;;
80421;SDS011;69763;50.182;9.144;2023-05-07T14:52:17;3.70;;;3.10;;
80421;SDS011;69763;50.182;9.144;2023-05-07T14:54:42;4.53;;;3.33;;
80421;SDS011;69763;50.182;9.144;2023-05-07T14:57:08;3.63;;;2.40;;
80421;SDS011;69763;50.182;9.144;2023-05-07T14:59:35;5.22;;;2.65;;
80421;SDS011;69763;50.182;9.144;2023-05-07T15:02:02;4.03;;;2.67;;
80421;SDS011;69763;50.182;9.144;2023-05-07T15:04:27;3.40;;;2.80;;
80421;SDS011;69763;50.182;9.144;2023-05-07T15:06:53;3.92;;;2.70;;
80421;SDS011;69763;50.182;9.144;2023-05-07T15:09:18;3.50;;;2.40;;
80421;SDS011;69763;50.182;9.144;2023-05-07T15:11:43;3.58;;;2.70;;
80421;SDS011;69763;50.182;9.144;2023-05-07T15:14:09;2.80;;;2.23;;
80421;SDS011;69763;50.182;9.144;2023-05-07T15:16:35;5.18;;;3.25;;